Aviation Digital Data Service (ADDS)

Output produced by METARs form (0722 UTC 24 March 2019)
found at http://www.aviationweather.gov/metar/data/
 
VGEG 240700Z 04003KT 4000 HZ FEW018 30/23 Q1011 NOSIG
TAF VGEG 240500Z 2406/2512 24009KT 4000 HZ FEW018 
     BECMG 2418/2420 20004KT 3200 HZ SCT018 
     TEMPO 2423/2503 00000KT 0800 FG SCT016 
     BECMG 2504/2506 26012KT 4500 HZ SCT018